Disclaimer

Please do not use the information listed here in-flight or in-navigation, as they are not provided to us by the airports but are provided by volunteers, so they might be outdated.

Search


Regions


Airport information page

Radio informations:
Tower (TWR) - 118.1 MHz
Ground (GND) - 121.9 MHz
Approach (APP) - 119.7 MHz

Airport informations:
Latitude: 08° 58' 40.40" N
Longitude: 038° 47' 57.55" E
Elevation: 7656 feet - 2334 meters
Operating hours: Remarks
Operating agency: Civil government, landing fees and diplomatic clearance may be required
Timezone: UTC+3
Fuel: Jet A1, without icing nhibitor.

Runway information:
07R/25L - 12467 x 148 feet< - >3800 x 45 meters
07L/25R - 12139 x 148 feet< - >3700 x 45 meters

Recent METARs:
HAAB 160300Z 33003KT C A V O K 09/02 Q1029
HAAB 160300Z 33003KT C A V O K 09/02 Q1029
HAAB 160300Z 33003KT C A V O K 09/02 Q1029

Airport on the map: